Time;durP1;ratioP1;P1;durP2;ratioP2;P2;SDS_P1;SDS_P2;PMS_P1;PMS_P2;Temp;Humidity;BMP_temperature;BMP_pressure;BME280_temperature;BME280_humidity;BME280_pressure;Samples;Min_cycle;Max_cycle;Signal;HPM_P1;HPM_P2
2023/06/30 00:00:15;;;;;;;9.00;3.03;;;15.40;99.90;;;;;;5030815;28;20555;-73
2023/06/30 00:02:42;;;;;;;8.90;3.07;;;15.40;99.90;;;;;;5031305;28;20046;-72
2023/06/30 00:05:09;;;;;;;8.33;2.67;;;15.30;99.90;;;;;;5014292;28;20049;-73
2023/06/30 00:07:34;;;;;;;9.10;2.50;;;15.30;99.90;;;;;;5014954;28;20049;-73
2023/06/30 00:10:00;;;;;;;9.07;3.20;;;15.30;99.90;;;;;;5030759;28;20389;-73
2023/06/30 00:12:26;;;;;;;11.60;2.60;;;15.30;99.90;;;;;;5014299;28;20057;-73
2023/06/30 00:14:52;;;;;;;9.23;2.70;;;15.10;99.90;;;;;;4997951;28;20143;-73
2023/06/30 00:17:17;;;;;;;10.83;3.20;;;15.10;99.90;;;;;;5018113;28;20104;-73
2023/06/30 00:19:43;;;;;;;6.33;2.30;;;15.10;99.90;;;;;;5034865;28;20045;-73
2023/06/30 00:22:09;;;;;;;7.63;2.67;;;15.10;99.90;;;;;;5034436;28;20099;-74
2023/06/30 00:24:35;;;;;;;8.30;2.37;;;15.10;99.90;;;;;;5018422;28;20452;-73
2023/06/30 00:27:00;;;;;;;7.90;2.87;;;15.10;99.90;;;;;;5001597;28;20073;-73
2023/06/30 00:29:26;;;;;;;8.80;2.43;;;15.00;99.90;;;;;;5018043;28;20054;-73
2023/06/30 00:31:52;;;;;;;10.83;2.90;;;15.00;99.90;;;;;;5034556;28;20092;-73
2023/06/30 00:34:18;;;;;;;11.73;3.27;;;15.00;99.90;;;;;;5001486;28;20056;-73
2023/06/30 00:36:43;;;;;;;11.47;2.63;;;15.00;99.90;;;;;;5017857;28;20045;-73
2023/06/30 00:39:09;;;;;;;12.07;3.63;;;15.00;99.90;;;;;;5017625;28;20045;-73
2023/06/30 00:41:35;;;;;;;11.47;3.80;;;14.90;99.90;;;;;;5001568;28;20045;-73
2023/06/30 00:44:02;;;;;;;10.70;2.97;;;14.90;99.90;;;;;;5033766;28;20053;-73
2023/06/30 00:46:27;;;;;;;10.67;3.03;;;14.90;99.90;;;;;;5034406;28;20041;-73
2023/06/30 00:48:53;;;;;;;10.20;2.97;;;14.90;99.90;;;;;;5017698;28;20141;-73
2023/06/30 00:51:19;;;;;;;7.57;2.50;;;14.90;99.90;;;;;;5017386;28;20355;-73
2023/06/30 00:53:45;;;;;;;9.20;3.10;;;14.80;99.90;;;;;;5017474;28;20498;-73
2023/06/30 00:56:11;;;;;;;9.17;2.90;;;14.80;99.90;;;;;;5033690;28;20052;-73
2023/06/30 00:58:37;;;;;;;7.37;2.73;;;14.70;99.90;;;;;;5017224;28;20119;-73
2023/06/30 01:01:21;;;;;;;12.13;3.40;;;14.70;99.90;;;;;;5018127;28;20087;-73
2023/06/30 01:03:54;;;;;;;6.80;2.67;;;14.70;99.90;;;;;;5033809;28;20045;-73
2023/06/30 01:06:51;;;;;;;9.47;2.80;;;14.70;99.90;;;;;;5033535;28;20052;-73
2023/06/30 01:09:21;;;;;;;9.20;2.90;;;14.70;99.90;;;;;;5032042;28;20406;-73
2023/06/30 01:11:50;;;;;;;9.50;2.63;;;14.70;99.90;;;;;;5017509;28;20048;-73
2023/06/30 01:14:17;;;;;;;10.27;2.80;;;14.60;99.90;;;;;;5017054;28;20049;-73
2023/06/30 01:16:44;;;;;;;6.97;3.00;;;14.60;99.90;;;;;;5034775;28;20049;-73
2023/06/30 01:19:32;;;;;;;7.97;2.30;;;14.60;99.90;;;;;;5033536;28;20062;-73
2023/06/30 01:22:04;;;;;;;9.30;2.67;;;14.60;99.90;;;;;;5034443;28;20515;-73
2023/06/30 01:24:34;;;;;;;6.23;2.40;;;14.50;99.90;;;;;;5033731;28;20133;-73
2023/06/30 01:27:01;;;;;;;8.90;2.60;;;14.50;99.90;;;;;;5033042;28;20053;-73
2023/06/30 01:29:27;;;;;;;8.97;2.43;;;14.40;99.90;;;;;;5017061;28;20127;-74
2023/06/30 01:31:53;;;;;;;10.23;2.87;;;14.40;99.90;;;;;;5000537;28;20095;-74
2023/06/30 01:34:19;;;;;;;8.50;2.77;;;14.40;99.90;;;;;;4999786;28;20077;-74
2023/06/30 01:36:46;;;;;;;8.97;2.97;;;14.40;99.90;;;;;;5016928;28;20052;-73
2023/06/30 01:39:12;;;;;;;8.10;2.40;;;14.30;99.90;;;;;;5017037;28;20080;-73
2023/06/30 01:41:38;;;;;;;6.90;2.70;;;14.30;99.90;;;;;;5033059;28;20054;-73
2023/06/30 01:44:04;;;;;;;8.57;2.60;;;14.30;99.90;;;;;;5032720;28;20045;-74
2023/06/30 01:46:30;;;;;;;6.50;2.20;;;14.30;99.90;;;;;;5016639;28;20473;-74
2023/06/30 01:48:56;;;;;;;7.10;2.37;;;14.40;99.90;;;;;;5032733;28;20048;-73
2023/06/30 01:51:22;;;;;;;6.47;2.67;;;14.30;99.90;;;;;;4999916;28;20065;-74
2023/06/30 01:53:48;;;;;;;10.60;2.87;;;14.30;99.90;;;;;;5000365;28;20053;-74
2023/06/30 01:56:14;;;;;;;9.00;2.73;;;14.30;99.90;;;;;;5015857;28;20049;-74
2023/06/30 01:58:40;;;;;;;7.73;3.10;;;14.30;99.90;;;;;;5032895;28;20049;-74
2023/06/30 02:01:05;;;;;;;8.50;3.00;;;14.30;99.90;;;;;;5032376;28;20051;-75
2023/06/30 02:03:31;;;;;;;10.10;2.77;;;14.30;99.90;;;;;;4999988;28;20053;-74
2023/06/30 02:05:57;;;;;;;10.90;2.20;;;14.20;99.90;;;;;;5033789;28;20124;-74
2023/06/30 02:08:26;;;;;;;8.67;2.60;;;14.20;99.90;;;;;;5032299;28;20046;-74
2023/06/30 02:10:51;;;;;;;13.17;2.60;;;14.20;99.90;;;;;;5015677;28;20292;-74
2023/06/30 02:13:17;;;;;;;11.17;3.23;;;14.20;99.90;;;;;;5015900;28;20538;-74
2023/06/30 02:15:43;;;;;;;9.90;2.37;;;14.20;99.90;;;;;;5016101;28;20482;-74
2023/06/30 02:18:09;;;;;;;8.97;3.07;;;14.10;99.90;;;;;;5015929;28;20051;-74
2023/06/30 02:20:34;;;;;;;8.37;2.90;;;14.10;99.90;;;;;;5033652;28;20129;-73
2023/06/30 02:23:00;;;;;;;8.87;2.63;;;14.10;99.90;;;;;;5016161;28;20497;-74
2023/06/30 02:25:26;;;;;;;9.17;2.73;;;14.10;99.90;;;;;;5031945;28;20095;-73
2023/06/30 02:27:52;;;;;;;9.50;2.73;;;14.10;99.90;;;;;;5016088;28;20401;-73
2023/06/30 02:30:18;;;;;;;7.03;2.23;;;14.10;99.90;;;;;;5015548;28;20045;-74
2023/06/30 02:32:44;;;;;;;7.67;2.53;;;14.10;99.90;;;;;;5032285;28;20336;-74
2023/06/30 02:35:09;;;;;;;7.77;2.63;;;14.10;99.90;;;;;;5015615;28;20046;-75
2023/06/30 02:37:36;;;;;;;9.07;2.40;;;14.00;99.90;;;;;;5031372;28;20046;-74
2023/06/30 02:40:02;;;;;;;7.63;2.40;;;14.00;99.90;;;;;;4999291;28;20049;-73
2023/06/30 02:42:27;;;;;;;6.57;2.40;;;14.00;99.90;;;;;;5031512;28;20292;-73
2023/06/30 02:44:53;;;;;;;7.43;2.50;;;14.00;99.90;;;;;;5015460;28;20130;-74
2023/06/30 02:47:19;;;;;;;5.97;2.43;;;13.90;99.90;;;;;;4998899;28;20401;-74
2023/06/30 02:49:44;;;;;;;7.10;2.43;;;13.90;99.90;;;;;;4999003;28;20130;-74
2023/06/30 02:52:10;;;;;;;8.50;2.83;;;13.90;99.90;;;;;;4999159;28;20056;-75
2023/06/30 02:54:36;;;;;;;6.67;2.50;;;13.80;99.90;;;;;;5031713;28;20041;-74
2023/06/30 02:57:02;;;;;;;6.60;2.40;;;13.80;99.90;;;;;;5031593;28;20041;-73
2023/06/30 02:59:27;;;;;;;8.07;2.83;;;13.70;99.90;;;;;;5031213;28;20049;-73
2023/06/30 03:01:54;;;;;;;10.37;2.67;;;13.70;99.90;;;;;;4999091;28;20084;-74
2023/06/30 03:04:19;;;;;;;10.33;2.93;;;13.70;99.90;;;;;;5031529;28;20497;-74
2023/06/30 03:06:45;;;;;;;9.73;2.87;;;13.60;99.90;;;;;;5015259;28;20288;-74
2023/06/30 03:09:11;;;;;;;10.20;2.80;;;13.60;99.90;;;;;;5031511;28;20053;-74
2023/06/30 03:11:37;;;;;;;6.17;2.40;;;13.60;99.90;;;;;;5015050;28;20112;-74
2023/06/30 03:14:02;;;;;;;8.93;2.90;;;13.60;99.90;;;;;;5014858;28;20064;-73
2023/06/30 03:16:28;;;;;;;9.53;2.60;;;13.60;99.90;;;;;;5031226;28;20045;-74
2023/06/30 03:18:54;;;;;;;6.87;2.43;;;13.60;99.90;;;;;;5015315;28;20437;-74
2023/06/30 03:21:19;;;;;;;6.27;2.23;;;13.60;99.90;;;;;;5014498;28;20054;-74
2023/06/30 03:23:45;;;;;;;8.03;3.00;;;13.60;99.90;;;;;;5015461;28;20052;-74
2023/06/30 03:26:13;;;;;;;6.60;2.50;;;13.60;99.90;;;;;;5031249;28;20075;-74
2023/06/30 03:28:39;;;;;;;8.10;2.77;;;13.50;99.90;;;;;;5014769;28;20288;-74
2023/06/30 03:31:04;;;;;;;8.03;3.13;;;13.50;99.90;;;;;;5031287;28;20284;-73
2023/06/30 03:33:30;;;;;;;8.57;2.83;;;13.50;99.90;;;;;;5031221;28;20046;-73
2023/06/30 03:35:56;;;;;;;5.57;2.33;;;13.50;99.90;;;;;;5031410;28;20599;-73
2023/06/30 03:38:22;;;;;;;6.10;2.27;;;13.50;99.90;;;;;;5031061;28;20053;-74
2023/06/30 03:40:47;;;;;;;6.77;3.03;;;13.50;99.90;;;;;;5032227;28;20133;-74
2023/06/30 03:43:13;;;;;;;9.07;2.47;;;13.50;99.90;;;;;;4998383;28;20084;-74
2023/06/30 03:45:39;;;;;;;8.80;3.10;;;13.50;99.90;;;;;;5014436;28;20104;-74
2023/06/30 03:48:05;;;;;;;7.70;2.83;;;13.50;99.90;;;;;;5031338;28;20050;-73
2023/06/30 03:50:31;;;;;;;7.07;2.60;;;13.60;99.90;;;;;;5001214;28;20041;-74
2023/06/30 03:52:57;;;;;;;6.20;2.73;;;13.60;99.90;;;;;;5035208;28;20045;-74
2023/06/30 03:55:22;;;;;;;9.57;2.70;;;13.60;99.90;;;;;;5018319;28;20111;-74
2023/06/30 03:57:48;;;;;;;5.37;2.30;;;13.60;99.90;;;;;;5034929;28;20045;-74
2023/06/30 04:00:20;;;;;;;6.83;2.90;;;13.60;99.90;;;;;;5019485;28;20053;-74
2023/06/30 04:02:46;;;;;;;8.27;2.57;;;13.60;99.90;;;;;;5018572;28;20625;-74
2023/06/30 04:05:11;;;;;;;8.23;3.00;;;13.60;99.90;;;;;;5034873;28;20068;-74
2023/06/30 04:07:37;;;;;;;9.00;2.97;;;13.60;99.90;;;;;;5034744;28;20135;-74
2023/06/30 04:10:03;;;;;;;8.57;3.00;;;13.60;99.90;;;;;;5018258;28;20061;-74
2023/06/30 04:12:29;;;;;;;7.73;3.13;;;13.60;99.90;;;;;;5018058;28;20088;-74
2023/06/30 04:14:55;;;;;;;7.30;3.07;;;13.60;99.90;;;;;;5018795;28;20791;-74
2023/06/30 04:17:21;;;;;;;8.20;3.10;;;13.60;99.90;;;;;;5018349;28;20049;-76
2023/06/30 04:19:46;;;;;;;7.07;3.33;;;13.60;99.90;;;;;;5002355;28;20052;-73
2023/06/30 04:22:12;;;;;;;9.10;2.90;;;13.70;99.90;;;;;;5018363;28;20053;-74
2023/06/30 04:24:38;;;;;;;7.23;2.77;;;13.70;99.90;;;;;;5001534;28;20539;-74
2023/06/30 04:27:04;;;;;;;7.83;3.30;;;13.70;99.90;;;;;;5018025;28;20048;-73
2023/06/30 04:29:29;;;;;;;6.40;2.90;;;13.80;99.90;;;;;;5001516;28;20053;-74
2023/06/30 04:31:55;;;;;;;8.00;3.37;;;13.90;99.90;;;;;;5018169;28;20354;-74
2023/06/30 04:34:21;;;;;;;9.03;2.70;;;13.90;99.90;;;;;;5034204;28;20045;-74
2023/06/30 04:36:49;;;;;;;7.10;3.10;;;14.00;99.90;;;;;;5017625;28;20056;-74
2023/06/30 04:39:15;;;;;;;9.83;3.17;;;14.10;99.90;;;;;;5018114;28;20295;-74
2023/06/30 04:41:41;;;;;;;6.57;3.33;;;14.20;99.90;;;;;;5017569;28;20383;-74
2023/06/30 04:44:06;;;;;;;7.37;2.77;;;14.20;99.90;;;;;;5018147;28;20371;-74
2023/06/30 04:46:32;;;;;;;7.80;3.03;;;14.30;99.90;;;;;;5033817;28;20052;-74
2023/06/30 04:49:00;;;;;;;7.33;2.67;;;14.40;99.90;;;;;;5017627;28;20045;-74
2023/06/30 04:51:26;;;;;;;11.50;2.93;;;14.60;99.90;;;;;;5033693;28;20081;-74
2023/06/30 04:53:53;;;;;;;8.87;3.13;;;14.70;99.90;;;;;;5033837;28;20347;-74
2023/06/30 04:56:19;;;;;;;10.73;3.27;;;14.80;99.90;;;;;;5017434;28;20382;-74
2023/06/30 04:58:45;;;;;;;6.73;2.43;;;14.90;99.90;;;;;;5033916;28;21249;-74
2023/06/30 05:01:11;;;;;;;9.17;2.87;;;15.00;99.90;;;;;;5033061;28;20284;-74
2023/06/30 05:03:36;;;;;;;10.90;2.90;;;15.20;99.90;;;;;;5000819;28;20045;-74
2023/06/30 05:06:03;;;;;;;8.50;2.47;;;15.30;99.90;;;;;;5017307;28;20080;-74
2023/06/30 05:08:28;;;;;;;7.27;2.63;;;15.50;99.90;;;;;;5017130;28;20061;-75
2023/06/30 05:10:54;;;;;;;12.27;3.07;;;15.60;99.90;;;;;;5017024;28;20057;-74
2023/06/30 05:13:20;;;;;;;9.33;3.10;;;15.80;99.90;;;;;;5035068;28;20056;-74
2023/06/30 05:15:45;;;;;;;7.40;2.80;;;15.90;99.90;;;;;;5000692;28;20058;-74
2023/06/30 05:18:11;;;;;;;5.83;2.60;;;16.00;99.90;;;;;;5000993;28;20049;-74
2023/06/30 05:20:39;;;;;;;8.73;2.47;;;16.10;99.90;;;;;;5016520;28;20119;-74
2023/06/30 05:23:05;;;;;;;10.30;2.80;;;16.20;99.90;;;;;;5033610;28;20393;-74
2023/06/30 05:25:30;;;;;;;7.83;2.23;;;16.40;99.90;;;;;;5032916;28;20048;-74
2023/06/30 05:27:58;;;;;;;7.17;2.50;;;16.50;99.90;;;;;;5017148;28;20047;-74
2023/06/30 05:30:23;;;;;;;10.80;3.60;;;16.60;99.90;;;;;;5017173;28;20125;-74
2023/06/30 05:32:49;;;;;;;8.50;2.53;;;16.70;99.90;;;;;;5016851;28;20912;-74
2023/06/30 05:35:15;;;;;;;8.13;2.73;;;16.80;99.90;;;;;;5016805;28;20042;-74
2023/06/30 05:37:41;;;;;;;6.10;2.03;;;16.90;99.90;;;;;;5033124;28;20056;-74
2023/06/30 05:40:07;;;;;;;7.87;2.60;;;17.10;99.90;;;;;;5000489;28;20053;-74
2023/06/30 05:42:32;;;;;;;7.87;2.57;;;17.20;99.90;;;;;;5016752;28;20477;-74
2023/06/30 05:44:58;;;;;;;7.27;2.40;;;17.40;99.90;;;;;;5016815;28;20049;-74
2023/06/30 05:47:24;;;;;;;8.47;2.10;;;17.50;99.90;;;;;;5033081;28;20358;-74
2023/06/30 05:49:51;;;;;;;9.80;2.57;;;17.60;99.90;;;;;;5016234;28;20133;-74
2023/06/30 05:52:16;;;;;;;4.53;2.00;;;17.90;99.90;;;;;;5033030;28;20045;-74
2023/06/30 05:54:42;;;;;;;6.43;2.17;;;18.80;99.90;;;;;;5032235;28;20049;-72
2023/06/30 05:57:08;;;;;;;7.53;2.60;;;20.20;99.90;;;;;;5033356;28;20052;-72
2023/06/30 05:59:33;;;;;;;6.83;1.97;;;21.50;99.90;;;;;;5016050;28;20053;-73
2023/06/30 06:01:59;;;;;;;7.67;2.30;;;22.50;99.90;;;;;;5032855;28;20482;-72
2023/06/30 06:04:25;;;;;;;5.80;2.13;;;23.10;99.90;;;;;;5033856;28;20069;-74
2023/06/30 06:06:51;;;;;;;7.47;2.10;;;23.90;99.90;;;;;;4999774;28;20184;-72
2023/06/30 06:09:18;;;;;;;7.40;2.00;;;24.40;99.90;;;;;;5032441;28;20045;-72
2023/06/30 06:11:44;;;;;;;6.27;1.90;;;25.10;99.90;;;;;;5015950;28;20562;-72
2023/06/30 06:14:19;;;;;;;6.80;2.10;;;25.40;99.90;;;;;;5016209;28;20140;-72
2023/06/30 06:16:45;;;;;;;6.00;1.63;;;25.80;99.90;;;;;;5032460;28;20050;-72
2023/06/30 06:19:14;;;;;;;108.03;14.27;;;26.20;99.90;;;;;;5033695;28;20049;-72
2023/06/30 06:21:40;;;;;;;32.37;5.90;;;26.50;99.30;;;;;;5016006;28;20057;-72
2023/06/30 06:24:07;;;;;;;38.53;6.37;;;26.70;95.60;;;;;;5033354;28;20449;-72
2023/06/30 06:26:33;;;;;;;96.23;18.70;;;26.70;93.50;;;;;;5016138;28;20057;-72
2023/06/30 06:28:59;;;;;;;135.17;19.63;;;26.80;91.70;;;;;;5032231;28;20085;-72
2023/06/30 06:31:27;;;;;;;9.90;2.10;;;26.60;90.20;;;;;;4999554;28;20528;-72
2023/06/30 06:33:53;;;;;;;9.30;2.10;;;26.80;90.20;;;;;;5032064;28;20140;-72
2023/06/30 06:36:21;;;;;;;6.93;2.37;;;26.80;87.70;;;;;;5032103;28;20051;-72
2023/06/30 06:38:47;;;;;;;6.47;1.60;;;26.20;86.40;;;;;;5032078;28;20052;-73
2023/06/30 06:41:13;;;;;;;6.03;1.97;;;26.50;87.70;;;;;;5016044;28;20057;-72
2023/06/30 06:43:38;;;;;;;6.80;1.67;;;27.20;83.60;;;;;;5015535;28;20049;-73
2023/06/30 06:46:04;;;;;;;7.07;2.43;;;27.80;75.80;;;;;;5014819;28;20371;-73
2023/06/30 06:48:30;;;;;;;5.53;1.90;;;28.30;68.20;;;;;;5032563;28;20038;-70
2023/06/30 06:50:58;;;;;;;6.47;1.90;;;28.60;64.80;;;;;;5032085;28;20408;-72
2023/06/30 06:53:33;;;;;;;6.60;2.00;;;27.90;61.20;;;;;;5031823;28;20072;-72
2023/06/30 06:55:59;;;;;;;8.70;2.05;;;26.80;62.40;;;;;;5031860;28;20049;-72
2023/06/30 06:58:27;;;;;;;5.03;1.60;;;26.20;69.20;;;;;;5031979;28;20045;-69
2023/06/30 07:00:53;;;;;;;5.63;1.50;;;26.30;71.60;;;;;;5031335;28;20411;-72
2023/06/30 07:03:19;;;;;;;6.57;1.93;;;26.20;69.10;;;;;;5031869;28;20068;-72
2023/06/30 07:05:45;;;;;;;5.30;1.87;;;25.50;69.90;;;;;;4998340;28;20485;-74
2023/06/30 07:08:12;;;;;;;4.80;1.40;;;25.60;75.20;;;;;;5014726;28;20472;-73
2023/06/30 07:10:38;;;;;;;5.83;1.90;;;25.50;72.20;;;;;;5015108;28;20057;-73
2023/06/30 07:13:04;;;;;;;5.60;1.70;;;25.10;71.90;;;;;;5031256;28;20508;-73
2023/06/30 07:15:30;;;;;;;9.73;2.23;;;24.60;76.30;;;;;;5015291;28;20053;-72
2023/06/30 07:17:56;;;;;;;6.93;1.50;;;24.10;79.30;;;;;;5031114;28;20137;-73
2023/06/30 07:20:23;;;;;;;6.07;1.40;;;24.00;86.00;;;;;;5031444;28;20128;-73
2023/06/30 07:22:49;;;;;;;6.00;1.83;;;23.80;87.50;;;;;;5014941;28;20156;-72
2023/06/30 07:25:15;;;;;;;6.80;1.80;;;23.60;88.30;;;;;;5030934;28;20041;-73
2023/06/30 07:27:52;;;;;;;4.80;1.60;;;23.50;88.90;;;;;;5015131;28;20151;-73
2023/06/30 07:30:20;;;;;;;7.00;1.90;;;24.30;88.10;;;;;;5031453;28;20076;-73
2023/06/30 07:32:46;;;;;;;7.40;1.77;;;25.00;84.30;;;;;;5031060;28;20041;-74
2023/06/30 07:35:12;;;;;;;5.60;1.80;;;25.70;79.10;;;;;;5015124;28;20045;-73
2023/06/30 07:37:38;;;;;;;4.90;1.60;;;26.90;73.80;;;;;;5015073;28;20046;-74
2023/06/30 07:40:04;;;;;;;6.33;1.70;;;28.00;66.80;;;;;;5014586;28;20076;-73
2023/06/30 07:42:30;;;;;;;6.35;1.73;;;28.90;60.50;;;;;;5015240;28;20055;-73
2023/06/30 07:44:56;;;;;;;4.97;1.60;;;28.90;53.60;;;;;;5014582;28;20041;-74
2023/06/30 07:47:21;;;;;;;3.95;1.58;;;28.50;52.30;;;;;;5031245;28;20650;-73
2023/06/30 07:49:47;;;;;;;7.78;2.22;;;28.80;52.30;;;;;;5014780;28;20045;-75
2023/06/30 07:52:13;;;;;;;6.85;1.65;;;29.40;50.90;;;;;;5014978;28;20068;-73
2023/06/30 07:54:39;;;;;;;4.85;1.48;;;29.70;49.30;;;;;;5031513;28;20045;-73
2023/06/30 07:57:05;;;;;;;4.63;1.67;;;30.40;48.90;;;;;;4998257;28;20049;-73
2023/06/30 07:59:31;;;;;;;7.68;2.00;;;31.00;48.20;;;;;;4998563;28;20136;-73
2023/06/30 08:01:57;;;;;;;6.55;2.13;;;31.40;47.50;;;;;;5030632;28;20046;-73
2023/06/30 08:04:23;;;;;;;5.38;2.10;;;32.00;46.60;;;;;;5031319;28;20388;-74
2023/06/30 08:06:49;;;;;;;5.05;1.88;;;31.90;45.30;;;;;;5014775;28;20053;-75
2023/06/30 08:09:15;;;;;;;7.07;1.83;;;31.50;44.60;;;;;;4997901;28;20429;-74
2023/06/30 08:11:40;;;;;;;6.63;1.90;;;31.40;44.80;;;;;;5031412;28;20053;-74
2023/06/30 08:14:06;;;;;;;3.58;1.63;;;31.90;43.90;;;;;;5013597;28;20408;-72
2023/06/30 08:16:32;;;;;;;4.88;2.03;;;32.10;43.60;;;;;;5030646;28;20049;-73
2023/06/30 08:18:58;;;;;;;7.97;1.80;;;32.10;42.90;;;;;;4997997;28;20494;-74
2023/06/30 08:21:25;;;;;;;6.00;2.03;;;31.10;43.20;;;;;;4998159;28;20052;-73
2023/06/30 08:23:50;;;;;;;6.13;2.05;;;29.70;43.90;;;;;;5014634;28;20545;-74
2023/06/30 08:26:17;;;;;;;4.85;1.85;;;28.60;44.80;;;;;;5014334;28;20129;-73
2023/06/30 08:28:42;;;;;;;4.85;1.90;;;28.00;46.70;;;;;;5014257;28;20521;-74
2023/06/30 08:31:08;;;;;;;5.28;2.13;;;28.40;47.50;;;;;;5013912;28;20041;-75
2023/06/30 08:33:34;;;;;;;7.15;1.88;;;29.10;46.40;;;;;;5014836;28;20041;-74
2023/06/30 08:36:01;;;;;;;4.55;1.70;;;30.00;45.90;;;;;;5030820;28;20045;-74
2023/06/30 08:38:27;;;;;;;5.05;1.52;;;30.60;45.20;;;;;;5017627;28;20045;-71
2023/06/30 08:40:53;;;;;;;10.52;2.33;;;30.20;44.20;;;;;;5034750;28;20040;-72
2023/06/30 08:43:22;;;;;;;5.78;1.70;;;29.40;44.50;;;;;;5035033;28;20574;-71
2023/06/30 08:45:51;;;;;;;6.13;2.50;;;28.70;44.10;;;;;;5034746;28;20042;-70
2023/06/30 08:48:19;;;;;;;7.30;2.00;;;28.60;45.70;;;;;;5034943;28;20042;-71
2023/06/30 08:50:45;;;;;;;3.88;1.80;;;28.90;45.50;;;;;;5035099;28;20132;-72
2023/06/30 08:53:11;;;;;;;5.28;1.80;;;29.40;45.60;;;;;;5034850;28;20440;-72
2023/06/30 08:55:37;;;;;;;3.53;1.40;;;29.60;45.40;;;;;;5034884;28;20041;-71
2023/06/30 08:58:04;;;;;;;4.82;1.67;;;29.60;44.50;;;;;;5034445;28;20053;-72
2023/06/30 09:00:30;;;;;;;4.35;1.60;;;29.20;43.20;;;;;;5034577;28;20573;-72
2023/06/30 09:02:58;;;;;;;3.78;1.50;;;28.70;43.40;;;;;;5034647;28;20045;-72
2023/06/30 09:05:25;;;;;;;5.63;1.50;;;28.40;43.90;;;;;;5034662;28;20041;-72
2023/06/30 09:07:56;;;;;;;4.82;1.60;;;28.20;43.80;;;;;;5033645;28;20393;-71
2023/06/30 09:10:33;;;;;;;6.47;2.05;;;27.90;44.50;;;;;;5031838;28;20119;-71
2023/06/30 09:13:01;;;;;;;4.85;1.60;;;27.60;44.70;;;;;;5033952;28;20056;-72
2023/06/30 09:15:26;;;;;;;4.15;1.67;;;27.40;44.60;;;;;;5034560;28;20041;-72
2023/06/30 09:17:53;;;;;;;4.57;1.67;;;27.20;45.40;;;;;;5034429;28;20579;-71
2023/06/30 09:20:21;;;;;;;7.45;1.88;;;26.80;45.40;;;;;;5016441;28;20037;-72
2023/06/30 09:22:47;;;;;;;6.22;1.73;;;26.60;46.30;;;;;;5033015;28;20524;-72
2023/06/30 09:25:25;;;;;;;5.22;1.73;;;26.30;45.90;;;;;;5033778;28;20072;-71
2023/06/30 09:27:51;;;;;;;3.67;1.52;;;26.10;46.80;;;;;;5031638;28;20133;-73
2023/06/30 09:30:18;;;;;;;5.03;1.50;;;25.80;46.90;;;;;;5033978;28;20052;-72
2023/06/30 09:32:43;;;;;;;4.63;1.73;;;25.90;47.00;;;;;;5034456;28;20045;-71
2023/06/30 09:35:14;;;;;;;4.18;1.65;;;25.90;47.10;;;;;;5033930;28;20481;-72
2023/06/30 09:37:46;;;;;;;3.88;1.40;;;25.60;46.60;;;;;;5032877;28;20041;-72
2023/06/30 09:40:15;;;;;;;5.22;1.95;;;25.40;47.00;;;;;;5033293;28;20045;-74
2023/06/30 09:42:44;;;;;;;5.57;1.83;;;25.40;47.40;;;;;;5024138;28;20045;-72
2023/06/30 09:45:12;;;;;;;5.72;1.38;;;25.30;47.80;;;;;;5015925;28;20048;-72
2023/06/30 09:47:39;;;;;;;9.53;1.80;;;25.10;48.20;;;;;;5033634;28;20107;-71
2023/06/30 09:50:05;;;;;;;5.97;2.07;;;25.00;48.40;;;;;;5033957;28;20493;-72
2023/06/30 09:52:33;;;;;;;5.53;1.50;;;24.90;48.80;;;;;;5034113;28;20102;-71
2023/06/30 09:55:08;;;;;;;3.67;1.40;;;24.80;48.70;;;;;;5032594;28;20482;-74
2023/06/30 09:57:37;;;;;;;8.53;2.03;;;24.70;49.40;;;;;;5034311;28;20052;-73
2023/06/30 10:00:04;;;;;;;7.80;1.93;;;24.60;50.20;;;;;;5032747;28;20049;-73
2023/06/30 10:02:31;;;;;;;5.63;1.50;;;24.50;50.50;;;;;;5016433;28;20057;-73
2023/06/30 10:04:57;;;;;;;5.47;1.77;;;24.40;50.80;;;;;;5016349;28;20096;-72
2023/06/30 10:07:23;;;;;;;4.07;1.70;;;24.40;51.10;;;;;;5031817;28;20058;-71
2023/06/30 10:09:52;;;;;;;5.17;1.90;;;24.50;51.40;;;;;;5030759;28;20132;-69
2023/06/30 10:12:19;;;;;;;4.93;1.53;;;24.50;51.20;;;;;;5040446;28;20084;-67
2023/06/30 10:14:47;;;;;;;5.60;1.60;;;24.30;51.30;;;;;;5033274;28;20137;-68
2023/06/30 10:17:13;;;;;;;4.93;1.40;;;24.20;52.00;;;;;;5033188;28;20497;-72
2023/06/30 10:19:41;;;;;;;3.67;1.40;;;24.10;52.70;;;;;;5033512;28;20049;-72
2023/06/30 10:22:07;;;;;;;5.87;2.60;;;24.10;51.90;;;;;;5031963;28;20087;-73
2023/06/30 10:24:41;;;;;;;5.10;1.77;;;24.10;51.50;;;;;;5032623;28;20132;-72
2023/06/30 10:27:09;;;;;;;4.43;1.73;;;24.00;51.20;;;;;;5032199;28;20053;-73
2023/06/30 10:29:35;;;;;;;4.10;1.40;;;24.00;51.00;;;;;;5032483;28;20154;-72
2023/06/30 10:32:03;;;;;;;4.87;1.70;;;24.00;51.60;;;;;;5032272;28;20410;-73
2023/06/30 10:34:30;;;;;;;5.23;1.60;;;24.00;51.50;;;;;;5032398;28;20056;-71
2023/06/30 10:36:57;;;;;;;6.20;1.83;;;24.00;51.60;;;;;;5033656;28;20397;-70
2023/06/30 10:39:24;;;;;;;2.90;1.50;;;23.90;52.10;;;;;;5032956;28;20344;-71
2023/06/30 10:41:50;;;;;;;2.77;1.30;;;23.90;51.60;;;;;;5032245;28;20049;-72
2023/06/30 10:44:19;;;;;;;5.17;1.83;;;23.80;51.20;;;;;;5032091;28;20106;-69
2023/06/30 10:46:53;;;;;;;4.13;1.80;;;23.70;51.70;;;;;;5032529;28;20172;-70
2023/06/30 10:49:53;;;;;;;4.18;1.65;;;23.50;51.50;;;;;;5016228;28;20423;-69
2023/06/30 10:52:29;;;;;;;5.47;1.93;;;23.40;51.90;;;;;;5032243;28;20053;-69
2023/06/30 10:55:06;;;;;;;4.20;1.60;;;23.30;52.50;;;;;;5030659;28;20045;-69
2023/06/30 10:57:36;;;;;;;4.37;2.00;;;23.20;52.40;;;;;;5031536;28;20137;-69
2023/06/30 11:00:10;;;;;;;4.77;1.60;;;23.30;52.40;;;;;;5032357;28;20085;-69
2023/06/30 11:02:57;;;;;;;4.30;1.73;;;23.40;53.50;;;;;;5033127;28;20049;-69
2023/06/30 11:05:33;;;;;;;4.40;1.77;;;23.60;54.10;;;;;;5032000;28;20065;-69
2023/06/30 11:08:01;;;;;;;4.73;1.80;;;23.70;54.00;;;;;;5033166;28;20102;-69
2023/06/30 11:10:32;;;;;;;5.73;1.90;;;23.80;54.30;;;;;;5032200;28;20961;-69
2023/06/30 11:13:00;;;;;;;4.50;1.70;;;23.90;54.00;;;;;;5031487;28;20145;-69
2023/06/30 11:15:28;;;;;;;2.97;1.40;;;24.00;54.00;;;;;;5014838;28;20053;-69
2023/06/30 11:17:56;;;;;;;4.57;1.70;;;24.00;53.40;;;;;;5032421;28;20125;-69
2023/06/30 11:20:27;;;;;;;4.83;1.80;;;24.00;53.50;;;;;;5032392;28;20096;-69
2023/06/30 11:23:04;;;;;;;4.03;1.43;;;23.80;53.30;;;;;;5032638;28;20135;-69
2023/06/30 11:25:35;;;;;;;4.57;1.67;;;23.70;54.30;;;;;;5030850;28;20056;-69
2023/06/30 11:28:04;;;;;;;4.30;1.63;;;23.80;55.40;;;;;;5032266;28;20049;-69
2023/06/30 11:30:38;;;;;;;4.77;1.63;;;23.90;55.50;;;;;;5032030;28;20462;-69
2023/06/30 11:33:05;;;;;;;5.47;1.60;;;23.90;54.40;;;;;;5032477;28;20057;-69
2023/06/30 11:35:33;;;;;;;4.57;1.70;;;24.00;54.40;;;;;;5030958;28;20037;-69
2023/06/30 11:37:59;;;;;;;4.53;1.60;;;24.10;54.70;;;;;;5032483;28;20072;-69
2023/06/30 11:40:25;;;;;;;4.87;2.23;;;24.00;53.80;;;;;;5031908;28;20095;-69
2023/06/30 11:42:54;;;;;;;5.93;2.17;;;24.00;54.00;;;;;;5032185;28;20560;-69
2023/06/30 11:45:27;;;;;;;4.30;1.73;;;24.10;53.60;;;;;;5031061;28;20049;-69
2023/06/30 11:47:54;;;;;;;5.73;1.80;;;24.00;52.60;;;;;;5031736;28;20132;-69
2023/06/30 11:50:20;;;;;;;4.23;1.90;;;24.00;52.70;;;;;;5030772;28;20508;-70
2023/06/30 11:52:48;;;;;;;5.47;2.03;;;24.00;53.20;;;;;;5031306;28;20187;-69
2023/06/30 11:55:14;;;;;;;6.47;1.70;;;24.00;53.60;;;;;;5031814;28;20048;-71
2023/06/30 11:57:42;;;;;;;4.70;1.80;;;24.00;53.90;;;;;;5030980;28;20068;-70
2023/06/30 12:00:13;;;;;;;4.30;1.80;;;24.00;54.00;;;;;;5032367;28;20057;-70
2023/06/30 12:02:45;;;;;;;5.77;2.43;;;24.00;53.70;;;;;;5032303;28;20088;-70
2023/06/30 12:05:17;;;;;;;10.10;2.37;;;24.10;54.10;;;;;;5032177;28;20084;-70
2023/06/30 12:07:44;;;;;;;5.40;2.00;;;24.00;53.80;;;;;;5031216;28;20053;-70
2023/06/30 12:10:11;;;;;;;7.13;1.90;;;24.00;54.10;;;;;;5032172;28;20049;-68
2023/06/30 12:12:37;;;;;;;5.07;1.93;;;23.90;54.20;;;;;;5034392;28;20053;-70
2023/06/30 12:15:09;;;;;;;4.80;1.60;;;23.90;54.40;;;;;;5035954;28;20045;-70
2023/06/30 12:17:37;;;;;;;3.80;1.50;;;24.00;54.80;;;;;;5001924;28;20057;-70
2023/06/30 12:20:04;;;;;;;4.80;2.00;;;24.10;54.70;;;;;;5034794;28;20064;-72
2023/06/30 12:22:30;;;;;;;6.13;1.70;;;24.10;53.90;;;;;;5035356;28;20490;-74
2023/06/30 12:24:58;;;;;;;5.67;1.90;;;24.10;53.70;;;;;;5035539;28;20052;-69
2023/06/30 12:27:27;;;;;;;6.07;2.20;;;24.10;53.70;;;;;;5035675;28;20046;-68
2023/06/30 12:29:55;;;;;;;6.10;1.97;;;24.10;53.90;;;;;;5035736;28;20057;-70
2023/06/30 12:32:24;;;;;;;4.93;1.90;;;24.00;53.90;;;;;;5034064;28;20041;-72
2023/06/30 12:34:58;;;;;;;6.87;2.37;;;23.90;54.20;;;;;;5035523;28;20095;-72
2023/06/30 12:37:25;;;;;;;6.97;2.30;;;23.90;53.60;;;;;;5035471;28;20508;-71
2023/06/30 12:39:50;;;;;;;4.60;2.00;;;23.70;53.10;;;;;;5035574;28;20045;-72
2023/06/30 12:42:18;;;;;;;6.40;1.93;;;23.70;53.40;;;;;;5035676;28;20048;-71
2023/06/30 12:44:43;;;;;;;3.27;1.80;;;23.60;53.50;;;;;;5035447;28;20143;-70